createdAt,value
2019-02-18T00:02:06.103Z,87.67
2019-02-18T00:04:36.749Z,87.64
2019-02-18T00:07:14.137Z,87.06
2019-02-18T00:09:39.552Z,87.34
2019-02-18T00:12:10.192Z,87.41
2019-02-18T00:14:40.819Z,87.39
2019-02-18T00:17:11.413Z,87.52
2019-02-18T00:19:42.037Z,87.43
2019-02-18T00:22:12.624Z,87.96
2019-02-18T00:24:43.228Z,88.28
2019-02-18T00:27:14.020Z,88.49
2019-02-18T00:29:44.598Z,89.10
2019-02-18T00:32:15.176Z,89.04
2019-02-18T00:34:45.983Z,88.83
2019-02-18T00:37:24.234Z,87.85
2019-02-18T00:39:48.828Z,87.86
2019-02-18T00:42:19.427Z,87.96
2019-02-18T00:44:49.959Z,87.89
2019-02-18T00:47:20.506Z,86.44
2019-02-18T00:49:51.259Z,87.34
2019-02-18T00:52:21.813Z,87.39
2019-02-18T00:54:52.375Z,87.46
2019-02-18T00:57:23.072Z,87.79
2019-02-18T00:59:53.643Z,87.74
2019-02-18T01:02:24.271Z,87.99
2019-02-18T01:04:54.874Z,87.70
2019-02-18T01:07:34.444Z,86.81
2019-02-18T01:09:57.967Z,86.64
2019-02-18T01:12:31.861Z,86.46
2019-02-18T01:15:02.401Z,86.45
2019-02-18T01:17:33.062Z,86.77
2019-02-18T01:20:03.709Z,87.33
2019-02-18T01:22:34.314Z,87.10
2019-02-18T01:25:05.381Z,87.37
2019-02-18T01:27:36.112Z,87.35
2019-02-18T01:30:08.996Z,87.35
2019-02-18T01:32:39.575Z,87.91
2019-02-18T01:35:10.856Z,88.01
2019-02-18T01:37:45.765Z,88.47
2019-02-18T01:40:14.813Z,87.71
2019-02-18T01:42:45.475Z,88.08
2019-02-18T01:45:16.151Z,88.37
2019-02-18T01:47:46.792Z,88.68
2019-02-18T01:50:17.474Z,87.58
2019-02-18T01:52:48.134Z,87.12
2019-02-18T01:55:18.716Z,87.39
2019-02-18T01:57:49.483Z,86.97
2019-02-18T02:00:20.244Z,86.98
2019-02-18T02:02:50.801Z,86.86
2019-02-18T02:05:21.479Z,87.04
2019-02-18T02:07:56.253Z,87.33
2019-02-18T02:10:24.422Z,87.30
2019-02-18T02:13:27.909Z,87.45
2019-02-18T02:15:59.546Z,87.25
2019-02-18T02:18:30.173Z,86.90
2019-02-18T02:21:00.886Z,86.81
2019-02-18T02:23:31.471Z,85.99
2019-02-18T02:26:02.087Z,86.63
2019-02-18T02:28:32.960Z,86.21
2019-02-18T02:31:03.652Z,86.51
2019-02-18T02:33:34.215Z,86.50
2019-02-18T02:36:04.990Z,86.38
2019-02-18T02:38:35.641Z,86.92
2019-02-18T02:41:06.164Z,87.75
2019-02-18T02:43:36.747Z,87.94
2019-02-18T02:46:07.378Z,88.33
2019-02-18T02:48:37.948Z,88.37
2019-02-18T02:51:08.543Z,88.19
2019-02-18T02:53:39.310Z,88.52
2019-02-18T02:56:09.857Z,88.84
2019-02-18T02:58:40.463Z,88.79
2019-02-18T03:01:11.058Z,88.82
2019-02-18T03:03:41.589Z,88.47
2019-02-18T03:06:12.167Z,88.83
2019-02-18T03:08:42.739Z,89.15
2019-02-18T03:11:13.294Z,89.19
2019-02-18T03:13:43.857Z,89.09
2019-02-18T03:16:14.456Z,89.70
2019-02-18T03:18:44.996Z,89.34
2019-02-18T03:21:15.583Z,89.09
2019-02-18T03:23:46.195Z,88.88
2019-02-18T03:26:16.831Z,88.70
2019-02-18T03:29:55.982Z,88.44
2019-02-18T03:32:26.636Z,88.54
2019-02-18T03:34:57.218Z,88.23
2019-02-18T03:37:27.821Z,88.45
2019-02-18T03:39:58.361Z,88.35
2019-02-18T03:42:28.952Z,88.31
2019-02-18T03:44:59.492Z,88.30
2019-02-18T03:47:30.037Z,88.42
2019-02-18T03:50:00.623Z,88.71
2019-02-18T03:52:31.180Z,89.06
2019-02-18T03:55:01.930Z,89.15
2019-02-18T03:57:32.666Z,88.84
2019-02-18T04:00:03.370Z,88.70
2019-02-18T04:02:52.994Z,88.11
2019-02-18T04:05:23.463Z,88.01
2019-02-18T04:07:53.954Z,87.72
2019-02-18T04:10:24.429Z,87.97
2019-02-18T04:12:54.966Z,88.04
2019-02-18T04:15:25.470Z,88.00
2019-02-18T04:17:55.954Z,88.19
2019-02-18T04:20:26.517Z,88.71
2019-02-18T04:22:57.036Z,88.46
2019-02-18T04:25:27.515Z,88.16
2019-02-18T04:27:58.066Z,87.94
2019-02-18T04:30:28.641Z,88.22
2019-02-18T04:32:59.127Z,88.57
2019-02-18T04:35:29.649Z,88.49
2019-02-18T04:38:00.152Z,88.42
2019-02-18T04:40:30.645Z,88.06
2019-02-18T04:43:01.147Z,87.62
2019-02-18T04:45:31.671Z,87.89
2019-02-18T04:48:02.157Z,87.97
2019-02-18T04:50:32.812Z,88.16
2019-02-18T04:53:03.415Z,88.08
2019-02-18T04:55:34.126Z,88.48
2019-02-18T04:58:06.185Z,89.44
2019-02-18T05:00:36.954Z,89.54
2019-02-18T05:03:07.512Z,89.47
2019-02-18T05:05:38.143Z,89.24
2019-02-18T05:08:08.747Z,89.54
2019-02-18T05:10:39.424Z,89.89
2019-02-18T05:13:09.934Z,89.97
2019-02-18T05:15:40.803Z,89.92
2019-02-18T05:18:11.483Z,89.95
2019-02-18T05:20:42.012Z,89.89
2019-02-18T05:23:12.586Z,90.28
2019-02-18T05:25:43.225Z,90.27
2019-02-18T05:28:13.699Z,90.19
2019-02-18T05:30:44.185Z,90.03
2019-02-18T05:33:14.761Z,89.80
2019-02-18T05:35:45.286Z,90.15
2019-02-18T05:38:15.787Z,89.93
2019-02-18T05:40:46.321Z,89.81
2019-02-18T05:43:16.837Z,89.47
2019-02-18T05:45:47.416Z,89.93
2019-02-18T05:48:17.922Z,89.52
2019-02-18T05:50:48.501Z,89.54
2019-02-18T05:53:19.004Z,89.76
2019-02-18T05:55:49.554Z,89.78
2019-02-18T05:58:20.089Z,89.68
2019-02-18T06:00:50.650Z,89.46
2019-02-18T06:03:21.166Z,89.16
2019-02-18T06:05:51.771Z,89.02
2019-02-18T06:08:22.293Z,88.82
2019-02-18T06:10:52.820Z,88.71
2019-02-18T06:13:23.281Z,88.50
2019-02-18T06:15:53.838Z,88.55
2019-02-18T06:18:24.376Z,88.87
2019-02-18T06:20:54.922Z,89.10
2019-02-18T06:23:25.621Z,89.22
2019-02-18T06:25:56.134Z,89.35
2019-02-18T06:28:26.700Z,89.25
2019-02-18T06:30:57.241Z,89.54
2019-02-18T06:33:28.483Z,89.40
2019-02-18T06:35:59.212Z,89.56
2019-02-18T06:38:29.779Z,89.57
2019-02-18T06:41:00.381Z,89.58
2019-02-18T06:43:31.074Z,89.47
2019-02-18T06:46:26.869Z,89.06
2019-02-18T06:49:05.177Z,89.21
2019-02-18T06:51:35.711Z,89.19
2019-02-18T06:54:06.317Z,89.28
2019-02-18T06:57:11.089Z,89.77
2019-02-18T06:59:45.646Z,89.81
2019-02-18T07:02:50.554Z,90.57
2019-02-18T07:05:43.879Z,90.57
2019-02-18T07:08:21.054Z,90.62
2019-02-18T07:11:01.143Z,90.34
2019-02-18T07:13:31.751Z,90.37
2019-02-18T07:16:02.219Z,90.51
2019-02-18T07:18:32.743Z,90.63
2019-02-18T07:21:03.922Z,90.84
2019-02-18T07:23:34.790Z,90.64
2019-02-18T07:26:05.469Z,90.47
2019-02-18T07:28:36.133Z,90.66
2019-02-18T07:31:18.687Z,90.65
2019-02-18T07:33:49.447Z,90.82
2019-02-18T07:36:23.083Z,90.60
2019-02-18T07:38:54.202Z,90.90
2019-02-18T07:41:25.371Z,91.06
2019-02-18T07:43:56.188Z,91.09
2019-02-18T07:46:27.063Z,91.07
2019-02-18T07:48:58.569Z,90.87
2019-02-18T07:51:29.467Z,90.70
2019-02-18T07:54:00.353Z,91.15
2019-02-18T07:56:31.087Z,91.32
2019-02-18T07:59:02.233Z,90.87
2019-02-18T08:01:32.788Z,90.21
2019-02-18T08:04:03.371Z,88.60
2019-02-18T08:06:37.260Z,87.95
2019-02-18T08:09:08.667Z,87.48
2019-02-18T08:11:39.192Z,86.64
2019-02-18T08:14:09.698Z,85.65
2019-02-18T08:16:40.310Z,83.98
2019-02-18T08:19:10.901Z,81.96
2019-02-18T08:21:41.430Z,81.02
2019-02-18T08:24:14.837Z,80.69
2019-02-18T08:26:45.373Z,80.19
2019-02-18T08:29:15.903Z,79.97
2019-02-18T08:31:46.525Z,79.61
2019-02-18T08:34:17.133Z,79.74
2019-02-18T08:36:47.761Z,77.88
2019-02-18T08:39:18.321Z,77.32
2019-02-18T08:41:48.823Z,77.09
2019-02-18T08:44:19.335Z,77.08
2019-02-18T08:46:49.909Z,76.55
2019-02-18T08:49:20.484Z,76.20
2019-02-18T08:51:51.013Z,76.19
2019-02-18T08:54:21.656Z,75.38
2019-02-18T08:56:52.218Z,75.63
2019-02-18T08:59:22.785Z,74.72
2019-02-18T09:01:53.338Z,74.43
2019-02-18T09:04:23.892Z,73.59
2019-02-18T09:06:54.417Z,73.01
2019-02-18T09:09:25.015Z,71.87
2019-02-18T09:11:55.511Z,71.95
2019-02-18T09:14:26.080Z,71.43
2019-02-18T09:16:56.713Z,70.31
2019-02-18T09:19:27.228Z,69.27
2019-02-18T09:22:19.721Z,69.51
2019-02-18T09:24:56.926Z,68.56
2019-02-18T09:27:27.413Z,69.48
2019-02-18T09:29:57.915Z,69.70
2019-02-18T09:32:28.502Z,68.79
2019-02-18T09:35:02.109Z,68.49
2019-02-18T09:37:31.372Z,68.08
2019-02-18T09:40:01.910Z,67.73
2019-02-18T09:42:32.599Z,68.04
2019-02-18T09:45:03.136Z,67.96
2019-02-18T09:47:54.320Z,68.29
2019-02-18T09:50:28.871Z,67.12
2019-02-18T09:52:59.543Z,67.17
2019-02-18T09:55:30.177Z,67.29
2019-02-18T09:58:00.917Z,67.08
2019-02-18T10:00:31.531Z,66.48
2019-02-18T10:03:02.036Z,66.71
2019-02-18T10:05:32.540Z,66.33
2019-02-18T10:08:03.124Z,66.11
2019-02-18T10:10:33.604Z,65.36
2019-02-18T10:13:04.201Z,66.14
2019-02-18T10:15:34.687Z,64.80
2019-02-18T10:18:05.219Z,64.67
2019-02-18T10:20:35.717Z,65.44
2019-02-18T10:23:06.239Z,64.19
2019-02-18T10:25:36.732Z,65.36
2019-02-18T10:28:07.311Z,64.99
2019-02-18T10:30:37.848Z,65.08
2019-02-18T10:33:08.326Z,64.99
2019-02-18T10:35:38.788Z,64.72
2019-02-18T10:38:09.401Z,64.70
2019-02-18T10:40:39.828Z,64.48
2019-02-18T10:43:10.313Z,64.52
2019-02-18T10:45:40.846Z,64.30
2019-02-18T10:48:11.347Z,64.70
2019-02-18T10:50:42.270Z,65.17
2019-02-18T10:53:12.749Z,64.64
2019-02-18T10:55:43.258Z,63.89
2019-02-18T10:58:13.740Z,64.63
2019-02-18T11:00:44.233Z,65.24
2019-02-18T11:03:14.745Z,65.26
2019-02-18T11:05:45.383Z,64.47
2019-02-18T11:08:15.860Z,65.17
2019-02-18T11:10:46.406Z,65.39
2019-02-18T11:13:16.894Z,64.83
2019-02-18T11:15:47.440Z,64.85
2019-02-18T11:18:17.914Z,65.05
2019-02-18T11:20:48.385Z,65.66
2019-02-18T11:23:18.959Z,64.96
2019-02-18T11:25:49.626Z,64.88
2019-02-18T11:28:20.974Z,64.07
2019-02-18T11:30:51.496Z,63.86
2019-02-18T11:33:21.977Z,63.61
2019-02-18T11:35:52.463Z,63.75
2019-02-18T11:38:22.996Z,62.59
2019-02-18T11:40:53.501Z,63.00
2019-02-18T11:43:23.974Z,63.38
2019-02-18T11:45:54.489Z,62.76
2019-02-18T11:48:24.988Z,61.51
2019-02-18T11:50:55.775Z,61.94
2019-02-18T11:53:26.319Z,61.64
2019-02-18T11:55:56.787Z,61.06
2019-02-18T11:58:27.274Z,60.67
2019-02-18T12:00:58.613Z,60.52
2019-02-18T12:03:29.288Z,60.24
2019-02-18T12:05:59.696Z,59.26
2019-02-18T12:08:30.240Z,59.74
2019-02-18T12:11:00.754Z,59.54
2019-02-18T12:13:31.215Z,57.96
2019-02-18T12:16:01.805Z,58.50
2019-02-18T12:18:32.493Z,58.22
2019-02-18T12:21:03.026Z,56.86
2019-02-18T12:23:33.542Z,56.44
2019-02-18T12:26:04.035Z,56.78
2019-02-18T12:28:39.154Z,56.75
2019-02-18T12:31:10.056Z,56.15
2019-02-18T12:33:40.465Z,56.05
2019-02-18T12:36:10.985Z,55.54
2019-02-18T12:38:41.477Z,55.97
2019-02-18T12:41:11.944Z,54.94
2019-02-18T12:43:42.502Z,55.66
2019-02-18T12:46:15.664Z,54.69
2019-02-18T12:48:45.247Z,55.54
2019-02-18T12:51:15.784Z,55.42
2019-02-18T12:53:46.518Z,54.53
2019-02-18T12:56:17.078Z,53.59
2019-02-18T12:58:54.413Z,53.54
2019-02-18T13:01:20.235Z,53.70
2019-02-18T13:03:50.713Z,53.50
2019-02-18T13:06:21.216Z,53.22
2019-02-18T13:08:51.680Z,52.10
2019-02-18T13:11:22.169Z,52.60
2019-02-18T13:13:53.002Z,52.83
2019-02-18T13:16:23.470Z,53.47
2019-02-18T13:18:53.957Z,53.76
2019-02-18T13:21:24.474Z,52.95
2019-02-18T13:23:55.656Z,50.32
2019-02-18T13:26:26.164Z,51.15
2019-02-18T13:28:57.054Z,48.73
2019-02-18T13:31:27.535Z,49.40
2019-02-18T13:33:58.010Z,48.40
2019-02-18T13:36:28.594Z,47.75
2019-02-18T13:38:59.086Z,46.90
2019-02-18T13:41:29.546Z,47.60
2019-02-18T13:44:00.016Z,48.85
2019-02-18T13:46:30.576Z,47.66
2019-02-18T13:49:01.052Z,47.40
2019-02-18T13:51:31.607Z,47.41
2019-02-18T13:54:02.040Z,47.33
2019-02-18T13:56:32.798Z,47.71
2019-02-18T13:59:03.356Z,47.69
2019-02-18T14:01:33.982Z,47.59
2019-02-18T14:04:04.465Z,47.70
2019-02-18T14:06:35.898Z,47.33
2019-02-18T14:09:07.161Z,47.57
2019-02-18T14:11:37.727Z,46.75
2019-02-18T14:14:08.256Z,47.34
2019-02-18T14:16:38.754Z,46.51
2019-02-18T14:19:09.282Z,46.80
2019-02-18T14:21:39.794Z,47.06
2019-02-18T14:24:10.484Z,46.82
2019-02-18T14:26:40.939Z,47.28
2019-02-18T14:29:12.122Z,47.29
2019-02-18T14:31:42.590Z,46.96
2019-02-18T14:34:13.153Z,47.33
2019-02-18T14:36:44.085Z,47.19
2019-02-18T14:39:22.720Z,47.35
2019-02-18T14:41:53.252Z,47.55
2019-02-18T14:44:24.194Z,47.66
2019-02-18T14:46:54.635Z,48.16
2019-02-18T14:49:25.470Z,48.14
2019-02-18T14:51:56.035Z,47.61
2019-02-18T14:54:26.626Z,48.15
2019-02-18T14:56:57.178Z,48.44
2019-02-18T14:59:27.630Z,48.49
2019-02-18T15:01:58.547Z,48.49
2019-02-18T15:04:29.069Z,48.64
2019-02-18T15:06:59.527Z,48.92
2019-02-18T15:09:30.012Z,48.85
2019-02-18T15:12:00.561Z,48.94
2019-02-18T15:14:31.119Z,49.43
2019-02-18T15:17:01.628Z,49.96
2019-02-18T15:19:32.157Z,48.70
2019-02-18T15:22:02.625Z,49.15
2019-02-18T15:24:33.154Z,48.80
2019-02-18T15:27:03.687Z,48.46
2019-02-18T15:29:34.464Z,48.99
2019-02-18T15:32:05.053Z,49.08
2019-02-18T15:34:35.609Z,48.73
2019-02-18T15:37:06.075Z,49.17
2019-02-18T15:39:36.614Z,49.55
2019-02-18T15:42:07.120Z,49.71
2019-02-18T15:44:37.664Z,49.82
2019-02-18T15:47:08.208Z,49.64
2019-02-18T15:49:38.901Z,49.74
2019-02-18T15:52:09.992Z,50.19
2019-02-18T15:54:40.474Z,50.39
2019-02-18T15:57:10.997Z,50.40
2019-02-18T15:59:41.431Z,50.69
2019-02-18T16:02:11.907Z,51.25
2019-02-18T16:04:42.598Z,52.09
2019-02-18T16:07:13.186Z,52.90
2019-02-18T16:09:44.090Z,53.03
2019-02-18T16:12:14.932Z,52.54
2019-02-18T16:14:45.405Z,52.56
2019-02-18T16:17:15.909Z,52.75
2019-02-18T16:19:46.515Z,53.58
2019-02-18T16:22:17.091Z,54.42
2019-02-18T16:24:47.701Z,55.19
2019-02-18T16:27:18.304Z,55.74
2019-02-18T16:29:48.872Z,56.19
2019-02-18T16:32:19.378Z,56.50
2019-02-18T16:34:49.909Z,56.65
2019-02-18T16:37:20.780Z,57.42
2019-02-18T16:39:51.318Z,58.89
2019-02-18T16:42:21.844Z,59.73
2019-02-18T16:44:52.633Z,60.38
2019-02-18T16:47:23.159Z,61.04
2019-02-18T16:49:53.997Z,61.67
2019-02-18T16:52:24.614Z,62.09
2019-02-18T16:54:55.150Z,62.88
2019-02-18T16:57:25.740Z,63.39
2019-02-18T16:59:56.236Z,64.15
2019-02-18T17:02:46.250Z,64.37
2019-02-18T17:05:16.777Z,65.24
2019-02-18T17:07:47.296Z,65.59
2019-02-18T17:10:17.913Z,66.38
2019-02-18T17:12:48.805Z,67.00
2019-02-18T17:15:19.348Z,67.46
2019-02-18T17:17:49.849Z,67.84
2019-02-18T17:20:20.350Z,67.80
2019-02-18T17:22:50.907Z,67.77
2019-02-18T17:25:21.479Z,68.26
2019-02-18T17:27:51.966Z,68.62
2019-02-18T17:30:22.482Z,69.09
2019-02-18T17:32:53.051Z,69.28
2019-02-18T17:35:23.605Z,69.48
2019-02-18T17:37:54.127Z,69.48
2019-02-18T17:40:25.112Z,69.90
2019-02-18T17:42:55.649Z,70.03
2019-02-18T17:45:26.170Z,70.29
2019-02-18T17:47:56.943Z,70.47
2019-02-18T17:50:27.504Z,70.70
2019-02-18T17:52:58.246Z,70.72
2019-02-18T17:55:28.808Z,70.74
2019-02-18T17:57:59.319Z,70.70
2019-02-18T18:00:31.811Z,70.64
2019-02-18T18:03:02.395Z,70.80
2019-02-18T18:05:32.926Z,70.92
2019-02-18T18:08:03.870Z,71.51
2019-02-18T18:10:34.498Z,71.89
2019-02-18T18:13:05.139Z,72.35
2019-02-18T18:15:35.672Z,72.61
2019-02-18T18:18:06.235Z,72.90
2019-02-18T18:20:37.287Z,73.34
2019-02-18T18:23:07.888Z,73.51
2019-02-18T18:25:38.491Z,73.74
2019-02-18T18:28:09.079Z,73.30
2019-02-18T18:30:39.746Z,73.31
2019-02-18T18:33:10.277Z,73.39
2019-02-18T18:35:40.815Z,73.85
2019-02-18T18:38:13.208Z,74.83
2019-02-18T18:40:43.756Z,74.70
2019-02-18T18:43:14.344Z,75.21
2019-02-18T18:45:44.872Z,75.43
2019-02-18T18:48:15.538Z,75.37
2019-02-18T18:50:46.103Z,75.76
2019-02-18T18:53:16.735Z,76.00
2019-02-18T18:55:47.367Z,76.13
2019-02-18T18:58:17.993Z,76.77
2019-02-18T19:00:49.148Z,76.52
2019-02-18T19:03:19.872Z,76.40
2019-02-18T19:05:50.466Z,77.70
2019-02-18T19:08:21.114Z,77.71
2019-02-18T19:10:51.658Z,77.61
2019-02-18T19:13:22.519Z,77.67
2019-02-18T19:15:53.107Z,77.61
2019-02-18T19:18:23.664Z,77.41
2019-02-18T19:20:54.187Z,77.54
2019-02-18T19:23:24.795Z,77.26
2019-02-18T19:25:55.593Z,77.65
2019-02-18T19:28:26.180Z,77.80
2019-02-18T19:30:56.802Z,77.45
2019-02-18T19:33:27.437Z,77.35
2019-02-18T19:35:58.007Z,78.00
2019-02-18T19:38:28.685Z,77.69
2019-02-18T19:40:59.245Z,78.49
2019-02-18T19:43:29.858Z,78.62
2019-02-18T19:46:00.447Z,79.00
2019-02-18T19:48:31.005Z,79.46
2019-02-18T19:51:01.635Z,79.85
2019-02-18T19:53:32.193Z,79.70
2019-02-18T19:56:02.691Z,79.55
2019-02-18T19:58:33.283Z,79.17
2019-02-18T20:01:03.883Z,79.16
2019-02-18T20:03:34.525Z,79.65
2019-02-18T20:06:05.291Z,79.86
2019-02-18T20:08:35.845Z,80.03
2019-02-18T20:11:06.384Z,80.91
2019-02-18T20:13:36.967Z,80.89
2019-02-18T20:16:07.595Z,80.95
2019-02-18T20:18:38.432Z,80.73
2019-02-18T20:21:09.005Z,81.00
2019-02-18T20:23:39.641Z,81.35
2019-02-18T20:26:10.182Z,80.88
2019-02-18T20:28:40.776Z,80.76
2019-02-18T20:31:11.597Z,80.40
2019-02-18T20:33:42.154Z,81.53
2019-02-18T20:36:12.661Z,82.11
2019-02-18T20:38:43.275Z,81.73
2019-02-18T20:41:13.817Z,81.61
2019-02-18T20:43:44.657Z,81.59
2019-02-18T20:46:15.325Z,81.74
2019-02-18T20:48:46.731Z,81.29
2019-02-18T20:51:17.362Z,82.07
2019-02-18T20:53:47.850Z,81.77
2019-02-18T20:56:18.359Z,82.01
2019-02-18T20:58:49.024Z,82.29
2019-02-18T21:01:19.592Z,81.90
2019-02-18T21:03:50.182Z,82.02
2019-02-18T21:06:20.776Z,82.04
2019-02-18T21:08:51.328Z,82.60
2019-02-18T21:11:22.086Z,82.67
2019-02-18T21:13:52.796Z,83.13
2019-02-18T21:16:23.318Z,82.74
2019-02-18T21:18:53.868Z,82.81
2019-02-18T21:21:24.464Z,82.76
2019-02-18T21:23:54.966Z,82.78
2019-02-18T21:26:25.495Z,83.15
2019-02-18T21:28:56.063Z,83.14
2019-02-18T21:31:26.637Z,82.84
2019-02-18T21:33:57.114Z,83.36
2019-02-18T21:36:27.743Z,82.89
2019-02-18T21:38:58.304Z,82.34
2019-02-18T21:41:28.825Z,82.38
2019-02-18T21:43:59.407Z,82.51
2019-02-18T21:46:30.013Z,83.23
2019-02-18T21:49:00.578Z,83.13
2019-02-18T21:51:31.374Z,83.19
2019-02-18T21:54:01.958Z,83.04
2019-02-18T21:56:32.454Z,83.04
2019-02-18T21:59:03.048Z,82.94
2019-02-18T22:01:33.558Z,82.78
2019-02-18T22:04:04.154Z,82.88
2019-02-18T22:06:34.685Z,82.98
2019-02-18T22:09:06.699Z,83.17
2019-02-18T22:11:37.205Z,83.25
2019-02-18T22:14:07.706Z,83.19
2019-02-18T22:16:38.243Z,83.02
2019-02-18T22:19:08.946Z,83.00
2019-02-18T22:21:39.430Z,83.32
2019-02-18T22:24:09.984Z,83.75
2019-02-18T22:26:40.490Z,83.42
2019-02-18T22:29:11.099Z,83.46
2019-02-18T22:31:41.554Z,83.62
2019-02-18T22:34:12.332Z,83.50
2019-02-18T22:36:42.901Z,83.28
2019-02-18T22:39:13.419Z,83.94
2019-02-18T22:41:43.964Z,84.03
2019-02-18T22:44:14.406Z,83.76
2019-02-18T22:46:44.898Z,83.86
2019-02-18T22:49:15.359Z,83.95
2019-02-18T22:51:45.909Z,84.42
2019-02-18T22:54:16.372Z,84.55
2019-02-18T22:56:46.875Z,84.39
2019-02-18T22:59:17.391Z,84.15
2019-02-18T23:01:48.151Z,84.45
2019-02-18T23:04:18.637Z,84.63
2019-02-18T23:06:49.159Z,84.69
2019-02-18T23:09:19.654Z,84.52
2019-02-18T23:11:50.109Z,84.32
2019-02-18T23:14:20.577Z,84.18
2019-02-18T23:16:51.244Z,84.21
2019-02-18T23:19:21.703Z,84.40
2019-02-18T23:21:52.173Z,84.19
2019-02-18T23:24:24.083Z,84.11
2019-02-18T23:26:54.464Z,84.77
2019-02-18T23:29:24.957Z,84.93
2019-02-18T23:31:55.443Z,84.86
2019-02-18T23:34:29.446Z,84.74
2019-02-18T23:36:59.914Z,84.79
2019-02-18T23:39:30.368Z,85.28
2019-02-18T23:42:00.852Z,85.38
2019-02-18T23:44:31.341Z,85.62
2019-02-18T23:47:01.781Z,85.28
2019-02-18T23:49:32.274Z,85.54
2019-02-18T23:52:02.755Z,85.38
2019-02-18T23:54:33.254Z,85.93
2019-02-18T23:57:03.763Z,85.39
2019-02-18T23:59:34.299Z,85.33
